createdAt,value
2022-10-31T00:01:00.499Z,20.21
2022-10-31T00:03:27.870Z,20.20
2022-10-31T00:05:54.327Z,20.24
2022-10-31T00:08:21.675Z,20.24
2022-10-31T00:10:49.043Z,20.27
2022-10-31T00:13:16.485Z,20.26
2022-10-31T00:15:43.045Z,20.27
2022-10-31T00:18:09.499Z,20.23
2022-10-31T00:20:35.955Z,20.22
2022-10-31T00:23:02.420Z,20.23
2022-10-31T00:25:28.884Z,20.22
2022-10-31T00:27:56.444Z,20.22
2022-10-31T00:30:24.169Z,20.15
2022-10-31T00:32:50.629Z,20.20
2022-10-31T00:35:18.004Z,20.14
2022-10-31T00:37:44.458Z,20.21
2022-10-31T00:40:11.830Z,20.20
2022-10-31T00:42:39.204Z,20.20
2022-10-31T00:45:06.578Z,20.18
2022-10-31T00:47:33.023Z,20.19
2022-10-31T00:49:59.486Z,20.21
2022-10-31T00:52:25.996Z,20.21
2022-10-31T00:54:52.433Z,20.21
2022-10-31T00:57:19.824Z,20.18
2022-10-31T00:59:46.284Z,20.15
2022-10-31T01:02:13.761Z,20.15
2022-10-31T01:04:40.350Z,20.17
2022-10-31T01:07:06.815Z,20.19
2022-10-31T01:09:34.182Z,20.13
2022-10-31T01:14:27.933Z,20.15
2022-10-31T01:16:55.289Z,20.15
2022-10-31T01:21:49.051Z,20.19
2022-10-31T01:24:16.434Z,20.12
2022-10-31T01:26:43.826Z,20.14
2022-10-31T01:29:10.279Z,20.15
2022-10-31T01:31:36.730Z,20.14
2022-10-31T01:34:04.134Z,20.12
2022-10-31T01:36:30.588Z,20.14
2022-10-31T01:38:57.089Z,20.12
2022-10-31T01:41:24.469Z,20.10
2022-10-31T01:43:51.865Z,20.13
2022-10-31T01:46:18.341Z,20.11
2022-10-31T01:48:44.792Z,20.10
2022-10-31T01:51:12.192Z,20.06
2022-10-31T01:53:38.657Z,20.09
2022-10-31T01:56:06.064Z,20.06
2022-10-31T01:58:32.517Z,20.04
2022-10-31T02:01:00.607Z,20.04
2022-10-31T02:03:29.932Z,20.06
2022-10-31T02:05:56.428Z,20.04
2022-10-31T02:08:22.883Z,20.06
2022-10-31T02:10:49.338Z,20.03
2022-10-31T02:13:15.845Z,20.08
2022-10-31T02:15:43.675Z,20.05
2022-10-31T02:18:10.145Z,20.10
2022-10-31T02:20:36.602Z,20.09
2022-10-31T02:23:03.105Z,20.09
2022-10-31T02:25:29.529Z,20.10
2022-10-31T02:27:56.991Z,20.11
2022-10-31T02:30:23.616Z,20.07
2022-10-31T02:32:50.065Z,20.08
2022-10-31T02:35:17.447Z,20.09
2022-10-31T02:37:43.906Z,20.06
2022-10-31T02:40:10.401Z,20.05
2022-10-31T02:42:36.847Z,20.05
2022-10-31T02:45:03.297Z,20.02
2022-10-31T02:47:29.758Z,20.02
2022-10-31T02:49:56.211Z,20.01
2022-10-31T02:52:22.693Z,20.02
2022-10-31T02:54:49.151Z,20.03
2022-10-31T02:57:16.522Z,20.01
2022-10-31T02:59:43.909Z,20.01
2022-10-31T03:02:11.478Z,20.01
2022-10-31T03:04:39.010Z,20.02
2022-10-31T03:07:05.484Z,20.00
2022-10-31T03:09:31.940Z,20.02
2022-10-31T03:11:58.404Z,20.03
2022-10-31T03:14:24.836Z,20.01
2022-10-31T03:16:51.326Z,20.03
2022-10-31T03:19:18.697Z,20.03
2022-10-31T03:21:45.120Z,20.05
2022-10-31T03:24:12.562Z,20.03
2022-10-31T03:26:39.033Z,20.06
2022-10-31T03:29:05.496Z,20.05
2022-10-31T03:31:31.964Z,20.04
2022-10-31T03:33:58.410Z,20.02
2022-10-31T03:36:24.837Z,20.03
2022-10-31T03:38:51.299Z,20.02
2022-10-31T03:41:17.756Z,20.00
2022-10-31T03:43:44.210Z,20.00
2022-10-31T03:46:11.619Z,19.97
2022-10-31T03:48:38.084Z,19.96
2022-10-31T03:51:04.538Z,19.95
2022-10-31T03:53:31.937Z,19.95
2022-10-31T03:55:59.321Z,19.92
2022-10-31T03:58:26.703Z,19.94
2022-10-31T04:00:54.142Z,19.92
2022-10-31T04:03:21.519Z,19.92
2022-10-31T04:05:48.026Z,19.92
2022-10-31T04:08:14.502Z,19.93
2022-10-31T04:10:41.908Z,19.94
2022-10-31T04:13:08.547Z,19.96
2022-10-31T04:15:35.078Z,19.96
2022-10-31T04:18:01.848Z,19.90
2022-10-31T04:20:29.577Z,19.78
2022-10-31T04:22:56.021Z,19.64
2022-10-31T04:25:23.418Z,19.44
2022-10-31T04:27:50.806Z,19.52
2022-10-31T04:30:18.192Z,19.56
2022-10-31T04:32:45.577Z,19.53
2022-10-31T04:35:12.123Z,19.53
2022-10-31T04:37:38.601Z,19.55
2022-10-31T04:40:05.116Z,19.54
2022-10-31T04:42:31.586Z,19.47
2022-10-31T04:44:58.982Z,19.46
2022-10-31T04:47:25.449Z,19.49
2022-10-31T04:49:51.905Z,19.44
2022-10-31T04:52:18.398Z,19.40
2022-10-31T04:54:44.853Z,19.41
2022-10-31T04:57:12.222Z,19.39
2022-10-31T04:59:39.626Z,19.38
2022-10-31T05:02:07.095Z,19.30
2022-10-31T05:04:34.574Z,19.33
2022-10-31T05:07:01.972Z,19.36
2022-10-31T05:09:29.382Z,19.35
2022-10-31T05:11:56.967Z,19.31
2022-10-31T05:14:23.387Z,19.33
2022-10-31T05:16:49.850Z,19.27
2022-10-31T05:19:16.338Z,19.26
2022-10-31T05:21:42.804Z,19.26
2022-10-31T05:24:10.074Z,19.24
2022-10-31T05:26:36.525Z,19.28
2022-10-31T05:29:03.042Z,19.26
2022-10-31T05:31:30.457Z,19.29
2022-10-31T05:33:57.179Z,19.22
2022-10-31T05:36:24.923Z,19.24
2022-10-31T05:38:51.599Z,19.31
2022-10-31T05:41:18.989Z,19.26
2022-10-31T05:43:46.397Z,19.27
2022-10-31T05:46:12.887Z,19.24
2022-10-31T05:48:39.376Z,19.27
2022-10-31T05:51:05.867Z,19.29
2022-10-31T05:53:33.275Z,19.24
2022-10-31T05:56:00.702Z,19.15
2022-10-31T05:58:28.141Z,19.23
2022-10-31T06:00:54.593Z,19.17
2022-10-31T06:03:21.053Z,19.19
2022-10-31T06:05:50.788Z,19.21
2022-10-31T06:08:21.604Z,19.17
2022-10-31T06:10:49.018Z,19.18
2022-10-31T06:13:15.487Z,19.20
2022-10-31T06:15:41.933Z,19.10
2022-10-31T06:18:08.404Z,18.96
2022-10-31T06:20:35.844Z,18.85
2022-10-31T06:23:02.855Z,18.79
2022-10-31T06:25:29.657Z,18.71
2022-10-31T06:27:57.175Z,18.74
2022-10-31T06:30:23.655Z,18.78
2022-10-31T06:32:51.072Z,18.81
2022-10-31T06:35:17.530Z,18.78
2022-10-31T06:37:46.744Z,18.80
2022-10-31T06:40:14.696Z,18.82
2022-10-31T06:42:42.111Z,18.81
2022-10-31T06:45:08.571Z,18.79
2022-10-31T06:47:50.765Z,18.81
2022-10-31T06:50:22.414Z,18.81
2022-10-31T06:52:49.844Z,18.88
2022-10-31T06:55:17.217Z,18.88
2022-10-31T06:57:44.606Z,18.89
2022-10-31T07:00:11.081Z,18.93
2022-10-31T07:02:38.516Z,18.90
2022-10-31T07:05:06.691Z,18.97
2022-10-31T07:07:33.143Z,18.99
2022-10-31T07:09:59.676Z,19.03
2022-10-31T07:12:26.180Z,19.01
2022-10-31T07:14:52.673Z,19.00
2022-10-31T07:17:20.039Z,19.04
2022-10-31T07:19:47.454Z,19.02
2022-10-31T07:22:13.917Z,18.99
2022-10-31T07:24:41.360Z,18.98
2022-10-31T07:27:07.868Z,18.95
2022-10-31T07:29:34.342Z,18.95
2022-10-31T07:32:01.750Z,18.96
2022-10-31T07:34:28.198Z,19.03
2022-10-31T07:36:55.602Z,19.09
2022-10-31T07:39:23.004Z,18.99
2022-10-31T07:41:49.478Z,18.95
2022-10-31T07:44:16.000Z,18.94
2022-10-31T07:46:42.521Z,18.99
2022-10-31T07:49:09.917Z,18.96
2022-10-31T07:51:36.373Z,18.92
2022-10-31T07:54:03.778Z,18.89
2022-10-31T07:56:31.192Z,19.05
2022-10-31T07:58:58.601Z,19.11
2022-10-31T08:01:26.004Z,19.13
2022-10-31T08:03:53.419Z,19.31
2022-10-31T08:06:19.882Z,19.37
2022-10-31T08:08:46.337Z,19.55
2022-10-31T08:11:12.805Z,19.94
2022-10-31T08:13:39.288Z,19.80
2022-10-31T08:16:08.473Z,19.86
2022-10-31T08:18:35.947Z,20.05
2022-10-31T08:21:02.404Z,19.75
2022-10-31T08:23:28.870Z,19.75
2022-10-31T08:25:56.200Z,20.09
2022-10-31T08:28:22.760Z,20.06
2022-10-31T08:30:49.219Z,19.70
2022-10-31T08:33:16.626Z,19.89
2022-10-31T08:35:43.145Z,19.85
2022-10-31T08:38:10.537Z,20.12
2022-10-31T08:40:36.992Z,20.05
2022-10-31T08:43:04.442Z,20.46
2022-10-31T08:45:31.849Z,19.86
2022-10-31T08:47:59.618Z,19.86
2022-10-31T08:50:26.477Z,19.84
2022-10-31T08:53:05.129Z,20.41
2022-10-31T08:55:32.555Z,20.27
2022-10-31T08:57:59.296Z,19.95
2022-10-31T09:00:26.192Z,20.21
2022-10-31T09:02:53.543Z,20.32
2022-10-31T09:05:20.946Z,20.46
2022-10-31T09:07:47.404Z,20.45
2022-10-31T09:10:14.805Z,20.24
2022-10-31T09:12:42.364Z,20.16
2022-10-31T09:15:09.840Z,19.96
2022-10-31T09:17:36.295Z,20.38
2022-10-31T09:20:03.694Z,20.24
2022-10-31T09:22:30.176Z,20.43
2022-10-31T09:24:57.557Z,20.21
2022-10-31T09:27:24.916Z,20.26
2022-10-31T09:29:52.296Z,20.36
2022-10-31T09:32:19.702Z,20.66
2022-10-31T09:34:47.079Z,20.79
2022-10-31T09:37:14.473Z,20.65
2022-10-31T09:39:41.838Z,20.69
2022-10-31T09:42:09.223Z,20.56
2022-10-31T09:44:35.759Z,20.55
2022-10-31T09:47:02.209Z,20.29
2022-10-31T09:49:28.765Z,20.28
2022-10-31T09:51:55.266Z,20.37
2022-10-31T09:54:21.737Z,20.33
2022-10-31T09:56:48.174Z,20.31
2022-10-31T09:59:14.635Z,20.27
2022-10-31T10:01:41.234Z,20.26
2022-10-31T10:04:08.687Z,20.22
2022-10-31T10:09:02.447Z,20.23
2022-10-31T10:11:29.818Z,20.24
2022-10-31T10:13:57.199Z,19.80
2022-10-31T10:16:23.652Z,19.48
2022-10-31T10:18:50.101Z,19.49
2022-10-31T10:21:16.576Z,19.38
2022-10-31T10:23:43.034Z,19.30
2022-10-31T10:26:11.336Z,19.34
2022-10-31T10:28:37.950Z,19.20
2022-10-31T10:31:05.354Z,19.43
2022-10-31T10:33:32.799Z,19.50
2022-10-31T10:36:00.194Z,19.37
2022-10-31T10:38:27.600Z,19.12
2022-10-31T10:40:54.060Z,19.11
2022-10-31T10:43:20.536Z,19.12
2022-10-31T10:45:47.948Z,18.92
2022-10-31T10:48:14.408Z,19.00
2022-10-31T10:50:41.810Z,18.94
2022-10-31T10:53:08.289Z,19.10
2022-10-31T10:55:35.724Z,19.07
2022-10-31T10:58:03.412Z,19.02
2022-10-31T11:00:30.218Z,19.07
2022-10-31T11:02:57.621Z,19.06
2022-10-31T11:05:25.001Z,19.06
2022-10-31T11:07:52.394Z,19.10
2022-10-31T11:10:19.799Z,18.84
2022-10-31T11:12:47.234Z,18.92
2022-10-31T11:15:14.629Z,18.80
2022-10-31T11:17:41.112Z,18.91
2022-10-31T11:20:08.516Z,19.08
2022-10-31T11:22:36.367Z,19.20
2022-10-31T11:25:03.788Z,19.38
2022-10-31T11:27:31.240Z,19.33
2022-10-31T11:30:00.731Z,19.30
2022-10-31T11:32:28.419Z,19.35
2022-10-31T11:34:55.816Z,19.44
2022-10-31T11:37:22.284Z,19.30
2022-10-31T11:39:48.740Z,19.25
2022-10-31T11:42:15.245Z,19.14
2022-10-31T11:44:42.698Z,19.24
2022-10-31T11:47:09.185Z,19.41
2022-10-31T11:49:35.659Z,19.15
2022-10-31T11:52:03.069Z,19.27
2022-10-31T11:54:30.508Z,19.32
2022-10-31T11:56:56.978Z,19.41
2022-10-31T11:59:23.711Z,19.47
2022-10-31T12:01:51.154Z,19.45
2022-10-31T12:04:18.665Z,19.48
2022-10-31T12:06:45.151Z,19.53
2022-10-31T12:09:12.524Z,19.57
2022-10-31T12:11:39.962Z,19.59
2022-10-31T12:14:06.421Z,19.57
2022-10-31T12:16:32.864Z,19.52
2022-10-31T12:18:59.346Z,19.47
2022-10-31T12:21:25.803Z,19.46
2022-10-31T12:23:52.308Z,19.52
2022-10-31T12:26:18.775Z,19.52
2022-10-31T12:28:46.382Z,19.49
2022-10-31T12:31:14.428Z,19.44
2022-10-31T12:33:40.888Z,19.47
2022-10-31T12:36:09.653Z,19.51
2022-10-31T12:38:39.016Z,19.53
2022-10-31T12:41:06.452Z,19.49
2022-10-31T12:43:32.904Z,19.48
2022-10-31T12:46:00.294Z,19.43
2022-10-31T12:48:27.659Z,19.48
2022-10-31T12:50:55.051Z,19.42
2022-10-31T12:53:21.554Z,19.36
2022-10-31T12:55:47.994Z,19.40
2022-10-31T12:58:15.414Z,19.41
2022-10-31T13:00:42.840Z,19.44
2022-10-31T13:03:09.356Z,19.40
2022-10-31T13:05:35.816Z,19.40
2022-10-31T13:08:03.526Z,19.41
2022-10-31T13:10:30.253Z,19.45
2022-10-31T13:12:56.700Z,19.41
2022-10-31T13:15:23.171Z,19.43
2022-10-31T13:17:49.631Z,19.43
2022-10-31T13:20:17.078Z,19.43
2022-10-31T13:22:43.552Z,19.43
2022-10-31T13:25:10.002Z,19.40
2022-10-31T13:27:36.475Z,19.45
2022-10-31T13:30:03.910Z,19.45
2022-10-31T13:32:30.370Z,19.51
2022-10-31T13:34:57.747Z,19.54
2022-10-31T13:37:24.244Z,19.56
2022-10-31T13:39:50.840Z,19.55
2022-10-31T13:42:17.366Z,19.56
2022-10-31T13:44:44.753Z,19.52
2022-10-31T13:47:12.152Z,19.46
2022-10-31T13:49:39.583Z,19.50
2022-10-31T13:52:06.991Z,19.50
2022-10-31T13:54:33.483Z,19.50
2022-10-31T13:57:00.879Z,19.49
2022-10-31T13:59:27.362Z,19.46
2022-10-31T14:01:54.885Z,19.40
2022-10-31T14:04:25.205Z,19.42
2022-10-31T14:06:53.400Z,19.46
2022-10-31T14:09:20.016Z,19.49
2022-10-31T14:11:47.406Z,19.49
2022-10-31T14:14:13.883Z,19.56
2022-10-31T14:16:41.267Z,19.61
2022-10-31T14:19:07.762Z,19.59
2022-10-31T14:21:35.954Z,19.56
2022-10-31T14:24:03.358Z,19.52
2022-10-31T14:26:30.765Z,19.50
2022-10-31T14:28:57.211Z,19.53
2022-10-31T14:31:24.931Z,19.52
2022-10-31T14:33:52.307Z,19.65
2022-10-31T14:36:20.012Z,19.69
2022-10-31T14:38:47.598Z,19.72
2022-10-31T14:41:14.995Z,19.74
2022-10-31T14:43:41.464Z,19.73
2022-10-31T14:46:07.949Z,19.72
2022-10-31T14:48:35.344Z,19.72
2022-10-31T14:51:02.743Z,19.70
2022-10-31T14:53:29.215Z,19.69
2022-10-31T14:55:55.727Z,19.70
2022-10-31T14:58:22.300Z,19.68
2022-10-31T15:00:48.886Z,19.66
2022-10-31T15:03:16.311Z,19.67
2022-10-31T15:05:43.719Z,19.68
2022-10-31T15:08:11.090Z,19.66
2022-10-31T15:10:37.558Z,19.66
2022-10-31T15:13:04.080Z,19.66
2022-10-31T15:15:31.517Z,19.67
2022-10-31T15:17:58.424Z,19.66
2022-10-31T15:20:26.060Z,19.66
2022-10-31T15:22:52.553Z,19.66
2022-10-31T15:25:19.990Z,19.66
2022-10-31T15:27:47.368Z,19.64
2022-10-31T15:30:13.813Z,19.65
2022-10-31T15:32:40.288Z,19.66
2022-10-31T15:35:06.790Z,19.64
2022-10-31T15:37:34.166Z,19.64
2022-10-31T15:40:00.599Z,19.63
2022-10-31T15:42:27.057Z,19.64
2022-10-31T15:44:54.469Z,19.63
2022-10-31T15:47:21.935Z,19.65
2022-10-31T15:49:49.322Z,19.67
2022-10-31T15:52:15.843Z,19.65
2022-10-31T15:54:43.208Z,19.63
2022-10-31T15:57:09.670Z,19.68
2022-10-31T15:59:36.169Z,19.68
2022-10-31T16:02:03.219Z,19.66
2022-10-31T16:04:29.867Z,19.63
2022-10-31T16:06:56.310Z,19.63
2022-10-31T16:09:22.771Z,19.63
2022-10-31T16:11:49.233Z,19.63
2022-10-31T16:14:15.713Z,19.62
2022-10-31T16:16:42.188Z,19.59
2022-10-31T16:19:09.582Z,19.60
2022-10-31T16:21:36.095Z,19.58
2022-10-31T16:24:05.918Z,19.58
2022-10-31T16:26:32.568Z,19.57
2022-10-31T16:29:04.907Z,19.58
2022-10-31T16:31:32.767Z,19.58
2022-10-31T16:34:00.165Z,19.59
2022-10-31T16:36:34.945Z,19.58
2022-10-31T16:39:02.995Z,19.59
2022-10-31T16:41:29.462Z,19.57
2022-10-31T16:43:56.865Z,19.56
2022-10-31T16:46:23.902Z,19.56
2022-10-31T16:48:50.377Z,19.56
2022-10-31T16:51:17.741Z,19.57
2022-10-31T16:53:46.709Z,19.56
2022-10-31T16:56:13.483Z,19.57
2022-10-31T16:58:40.105Z,19.58
2022-10-31T17:01:06.624Z,19.56
2022-10-31T17:03:34.119Z,19.57
2022-10-31T17:06:00.602Z,19.55
2022-10-31T17:08:27.056Z,19.57
2022-10-31T17:10:53.538Z,19.57
2022-10-31T17:13:20.003Z,19.56
2022-10-31T17:15:47.394Z,19.58
2022-10-31T17:18:13.860Z,19.57
2022-10-31T17:20:40.328Z,19.57
2022-10-31T17:23:07.712Z,19.56
2022-10-31T17:25:35.106Z,19.55
2022-10-31T17:28:01.566Z,19.60
2022-10-31T17:30:28.973Z,19.57
2022-10-31T17:32:56.515Z,19.57
2022-10-31T17:35:22.953Z,19.57
2022-10-31T17:37:49.405Z,19.56
2022-10-31T17:40:16.844Z,19.56
2022-10-31T17:42:43.301Z,19.55
2022-10-31T17:45:09.741Z,19.55
2022-10-31T17:47:36.221Z,19.53
2022-10-31T17:50:02.677Z,19.53
2022-10-31T17:52:30.095Z,19.55
2022-10-31T17:54:57.481Z,19.56
2022-10-31T17:57:24.034Z,19.57
2022-10-31T17:59:51.410Z,19.59
2022-10-31T18:02:17.941Z,19.60
2022-10-31T18:04:44.501Z,19.54
2022-10-31T18:07:10.979Z,19.56
2022-10-31T18:09:37.433Z,19.58
2022-10-31T18:12:03.893Z,19.66
2022-10-31T18:14:31.468Z,19.63
2022-10-31T18:16:58.861Z,19.65
2022-10-31T18:19:25.327Z,19.65
2022-10-31T18:21:52.706Z,19.63
2022-10-31T18:24:19.152Z,19.66
2022-10-31T18:26:46.566Z,19.64
2022-10-31T18:29:13.006Z,19.64
2022-10-31T18:31:40.406Z,19.67
2022-10-31T18:34:06.854Z,19.66
2022-10-31T18:36:34.389Z,19.70
2022-10-31T18:39:01.816Z,19.69
2022-10-31T18:41:29.206Z,19.68
2022-10-31T18:43:55.679Z,19.84
2022-10-31T18:46:23.071Z,19.97
2022-10-31T18:48:49.558Z,20.03
2022-10-31T18:51:15.997Z,19.99
2022-10-31T18:53:42.455Z,20.11
2022-10-31T18:56:08.999Z,20.08
2022-10-31T18:58:35.472Z,20.19
2022-10-31T19:01:01.977Z,20.40
2022-10-31T19:03:28.478Z,20.19
2022-10-31T19:05:55.042Z,20.31
2022-10-31T19:08:21.720Z,20.25
2022-10-31T19:10:48.259Z,20.29
2022-10-31T19:13:15.628Z,20.37
2022-10-31T19:15:42.072Z,20.42
2022-10-31T19:18:08.552Z,20.28
2022-10-31T19:20:35.919Z,20.16
2022-10-31T19:23:02.568Z,20.28
2022-10-31T19:25:29.488Z,20.31
2022-10-31T19:27:56.846Z,20.38
2022-10-31T19:30:24.239Z,20.38
2022-10-31T19:32:51.652Z,20.26
2022-10-31T19:35:18.095Z,20.33
2022-10-31T19:37:44.530Z,20.25
2022-10-31T19:40:11.888Z,20.11
2022-10-31T19:42:38.345Z,20.05
2022-10-31T19:45:04.826Z,20.03
2022-10-31T19:47:32.215Z,20.05
2022-10-31T19:49:58.671Z,19.97
2022-10-31T19:52:25.204Z,19.99
2022-10-31T19:54:52.597Z,19.97
2022-10-31T19:57:35.904Z,19.96
2022-10-31T20:00:05.515Z,19.97
2022-10-31T20:02:32.199Z,19.97
2022-10-31T20:04:58.676Z,20.00
2022-10-31T20:07:25.141Z,19.99
2022-10-31T20:09:52.520Z,19.99
2022-10-31T20:12:19.872Z,20.00
2022-10-31T20:14:46.332Z,19.97
2022-10-31T20:17:12.764Z,19.99
2022-10-31T20:19:39.462Z,19.98
2022-10-31T20:22:05.982Z,20.00
2022-10-31T20:24:32.448Z,20.01
2022-10-31T20:26:58.918Z,20.04
2022-10-31T20:29:26.408Z,20.06
2022-10-31T20:31:53.755Z,20.03
2022-10-31T20:34:21.060Z,20.05
2022-10-31T20:36:48.449Z,20.07
2022-10-31T20:39:14.901Z,20.06
2022-10-31T20:41:41.342Z,19.98
2022-10-31T20:44:07.781Z,20.01
2022-10-31T20:46:35.167Z,20.01
2022-10-31T20:49:02.488Z,20.04
2022-10-31T20:51:29.923Z,20.04
2022-10-31T20:53:56.380Z,20.03
2022-10-31T20:56:23.744Z,20.03
2022-10-31T20:58:50.406Z,20.08
2022-10-31T21:01:17.850Z,20.15
2022-10-31T21:03:45.322Z,20.53
2022-10-31T21:06:11.817Z,20.44
2022-10-31T21:08:39.201Z,20.38
2022-10-31T21:11:05.654Z,20.35
2022-10-31T21:13:33.292Z,20.45
2022-10-31T21:16:00.909Z,20.36
2022-10-31T21:18:28.254Z,20.50
2022-10-31T21:20:54.716Z,20.44
2022-10-31T21:23:21.204Z,20.25
2022-10-31T21:25:47.671Z,20.29
2022-10-31T21:28:15.079Z,20.34
2022-10-31T21:30:41.500Z,20.26
2022-10-31T21:35:35.262Z,20.14
2022-10-31T21:38:02.962Z,20.45
2022-10-31T21:40:29.767Z,20.27
2022-10-31T21:42:56.315Z,20.45
2022-10-31T21:45:22.736Z,20.22
2022-10-31T21:47:50.094Z,20.40
2022-10-31T21:50:17.473Z,20.30
2022-10-31T21:52:43.942Z,20.33
2022-10-31T21:55:10.397Z,20.27
2022-10-31T21:57:36.843Z,20.31
2022-10-31T22:00:03.296Z,20.35
2022-10-31T22:02:29.754Z,20.22
2022-10-31T22:04:56.205Z,20.20
2022-10-31T22:07:22.711Z,20.13
2022-10-31T22:09:49.146Z,20.42
2022-10-31T22:12:16.502Z,20.37
2022-10-31T22:14:43.935Z,20.31
2022-10-31T22:17:10.455Z,20.46
2022-10-31T22:19:36.919Z,20.42
2022-10-31T22:22:04.313Z,20.38
2022-10-31T22:24:30.768Z,20.25
2022-10-31T22:26:58.153Z,20.19
2022-10-31T22:29:25.557Z,20.32
2022-10-31T22:31:55.311Z,20.32
2022-10-31T22:34:25.279Z,20.24
2022-10-31T22:36:52.627Z,20.22
2022-10-31T22:39:19.104Z,20.21
2022-10-31T22:41:45.608Z,20.31
2022-10-31T22:44:13.008Z,20.37
2022-10-31T22:46:39.501Z,20.51
2022-10-31T22:49:05.938Z,20.34
2022-10-31T22:51:33.315Z,20.40
2022-10-31T22:54:00.703Z,20.21
2022-10-31T22:56:27.149Z,20.18
2022-10-31T22:58:54.526Z,20.19
2022-10-31T23:01:21.132Z,20.13
2022-10-31T23:03:48.626Z,20.28
2022-10-31T23:06:15.971Z,20.24
2022-10-31T23:08:42.413Z,20.49
2022-10-31T23:11:08.899Z,20.35
2022-10-31T23:13:35.372Z,20.42
2022-10-31T23:16:01.826Z,20.30
2022-10-31T23:18:48.629Z,20.25
2022-10-31T23:21:15.731Z,20.26
2022-10-31T23:23:42.177Z,20.20
2022-10-31T23:26:08.658Z,20.24
2022-10-31T23:28:36.062Z,20.21
2022-10-31T23:31:03.460Z,20.24
2022-10-31T23:33:31.548Z,20.16
2022-10-31T23:35:58.117Z,20.20
2022-10-31T23:38:25.491Z,20.20
2022-10-31T23:40:51.923Z,20.21
2022-10-31T23:43:18.361Z,20.21
2022-10-31T23:45:44.777Z,20.12
2022-10-31T23:48:11.274Z,20.17
2022-10-31T23:53:05.930Z,20.18
2022-10-31T23:55:33.334Z,20.11
2022-10-31T23:57:59.991Z,20.19
